createdAt,value
2022-08-28T00:00:42.516Z,46.40
2022-08-28T00:03:13.328Z,49.47
2022-08-28T00:05:41.792Z,50.67
2022-08-28T00:08:11.228Z,47.00
2022-08-28T00:10:42.077Z,46.90
2022-08-28T00:13:15.585Z,48.55
2022-08-28T00:15:42.609Z,46.33
2022-08-28T00:18:09.943Z,45.92
2022-08-28T00:20:38.758Z,43.45
2022-08-28T00:23:07.143Z,41.65
2022-08-28T00:25:35.061Z,43.92
2022-08-28T00:28:08.848Z,44.95
2022-08-28T00:30:46.841Z,41.95
2022-08-28T00:33:27.454Z,40.35
2022-08-28T00:35:55.878Z,42.55
2022-08-28T00:38:24.394Z,41.22
2022-08-28T00:40:55.743Z,48.70
2022-08-28T00:43:35.619Z,47.15
2022-08-28T00:46:05.844Z,44.80
2022-08-28T00:48:33.120Z,42.78
2022-08-28T00:51:21.752Z,45.53
2022-08-28T00:53:48.801Z,46.38
2022-08-28T00:56:18.667Z,48.33
2022-08-28T00:58:48.286Z,44.55
2022-08-28T01:01:16.013Z,44.55
2022-08-28T01:03:44.051Z,50.97
2022-08-28T01:06:14.907Z,45.40
2022-08-28T01:08:50.646Z,49.85
2022-08-28T01:11:19.702Z,45.67
2022-08-28T01:13:48.717Z,44.42
2022-08-28T01:16:18.769Z,43.35
2022-08-28T01:18:48.089Z,46.47
2022-08-28T01:21:32.648Z,44.72
2022-08-28T01:24:09.277Z,43.95
2022-08-28T01:26:38.532Z,41.70
2022-08-28T01:29:08.649Z,47.80
2022-08-28T01:31:36.770Z,44.53
2022-08-28T01:34:05.024Z,47.92
2022-08-28T01:36:32.387Z,44.00
2022-08-28T01:39:20.899Z,43.42
2022-08-28T01:41:52.251Z,45.50
2022-08-28T01:44:24.956Z,45.08
2022-08-28T01:46:54.570Z,43.97
2022-08-28T01:49:23.326Z,43.45
2022-08-28T01:51:50.379Z,42.38
2022-08-28T01:54:20.164Z,40.92
2022-08-28T01:56:47.959Z,41.50
2022-08-28T01:59:15.551Z,43.03
2022-08-28T02:01:43.649Z,39.17
2022-08-28T02:04:11.661Z,46.00
2022-08-28T02:06:39.197Z,41.88
2022-08-28T02:09:13.494Z,45.45
2022-08-28T02:11:46.571Z,47.60
2022-08-28T02:14:14.975Z,44.10
2022-08-28T02:16:41.987Z,43.85
2022-08-28T02:19:08.968Z,45.60
2022-08-28T02:21:35.952Z,45.10
2022-08-28T02:24:05.097Z,46.95
2022-08-28T02:26:33.615Z,45.58
2022-08-28T02:29:00.977Z,45.33
2022-08-28T02:31:28.503Z,46.17
2022-08-28T02:33:56.096Z,45.33
2022-08-28T02:36:24.122Z,49.28
2022-08-28T02:38:57.401Z,47.42
2022-08-28T02:41:25.249Z,50.20
2022-08-28T02:43:52.565Z,50.20
2022-08-28T02:46:19.582Z,51.30
2022-08-28T02:48:47.129Z,50.47
2022-08-28T02:51:14.912Z,47.13
2022-08-28T02:53:42.934Z,50.35
2022-08-28T02:56:26.148Z,47.05
2022-08-28T02:59:06.529Z,46.78
2022-08-28T03:01:34.450Z,51.05
2022-08-28T03:04:05.623Z,46.85
2022-08-28T03:06:33.525Z,52.67
2022-08-28T03:09:00.670Z,49.10
2022-08-28T03:11:27.748Z,50.53
2022-08-28T03:13:55.710Z,47.33
2022-08-28T03:16:22.941Z,50.55
2022-08-28T03:18:49.976Z,49.25
2022-08-28T03:21:17.487Z,51.40
2022-08-28T03:23:44.528Z,49.08
2022-08-28T03:26:19.081Z,47.28
2022-08-28T03:28:54.285Z,46.28
2022-08-28T03:31:25.342Z,48.53
2022-08-28T03:33:53.379Z,49.33
2022-08-28T03:36:28.024Z,46.88
2022-08-28T03:38:57.994Z,47.20
2022-08-28T03:41:29.311Z,47.63
2022-08-28T03:43:58.680Z,47.38
2022-08-28T03:46:27.759Z,49.28
2022-08-28T03:48:55.713Z,47.28
2022-08-28T03:51:29.971Z,51.00
2022-08-28T03:53:59.332Z,46.33
2022-08-28T03:56:28.485Z,46.17
2022-08-28T03:58:59.449Z,45.45
2022-08-28T04:01:26.714Z,46.88
2022-08-28T04:03:54.017Z,43.58
2022-08-28T04:06:21.098Z,44.90
2022-08-28T04:08:48.636Z,46.33
2022-08-28T04:11:15.790Z,41.53
2022-08-28T04:13:42.788Z,47.97
2022-08-28T04:16:13.814Z,43.92
2022-08-28T04:18:43.319Z,46.75
2022-08-28T04:21:17.936Z,47.65
2022-08-28T04:23:47.622Z,46.53
2022-08-28T04:26:18.663Z,43.38
2022-08-28T04:28:47.058Z,41.88
2022-08-28T04:31:15.108Z,41.47
2022-08-28T04:33:42.506Z,40.35
2022-08-28T04:36:15.786Z,45.40
2022-08-28T04:38:44.242Z,45.13
2022-08-28T04:41:13.744Z,43.17
2022-08-28T04:43:40.950Z,43.15
2022-08-28T04:46:09.185Z,48.53
2022-08-28T04:48:36.673Z,46.38
2022-08-28T04:51:07.327Z,57.53
2022-08-28T04:53:34.711Z,45.70
2022-08-28T04:56:04.973Z,50.83
2022-08-28T04:58:34.225Z,47.03
2022-08-28T05:01:11.410Z,47.15
2022-08-28T05:03:39.307Z,46.90
2022-08-28T05:06:06.725Z,47.72
2022-08-28T05:08:34.404Z,49.25
2022-08-28T05:11:22.083Z,51.05
2022-08-28T05:14:04.654Z,49.20
2022-08-28T05:16:33.290Z,51.10
2022-08-28T05:19:01.360Z,48.47
2022-08-28T05:21:28.792Z,46.40
2022-08-28T05:23:57.656Z,53.47
2022-08-28T05:26:26.800Z,56.42
2022-08-28T05:28:56.614Z,55.60
2022-08-28T05:31:24.597Z,51.53
2022-08-28T05:33:52.948Z,51.67
2022-08-28T05:36:23.386Z,58.67
2022-08-28T05:38:57.350Z,57.97
2022-08-28T05:41:27.310Z,56.97
2022-08-28T05:43:54.388Z,53.97
2022-08-28T05:46:23.300Z,59.45
2022-08-28T05:48:50.481Z,58.95
2022-08-28T05:51:20.421Z,50.33
2022-08-28T05:53:50.460Z,52.08
2022-08-28T05:56:22.225Z,60.67
2022-08-28T05:58:50.283Z,55.85
2022-08-28T06:01:20.644Z,54.17
2022-08-28T06:04:00.345Z,52.60
2022-08-28T06:06:30.042Z,51.53
2022-08-28T06:09:02.099Z,51.45
2022-08-28T06:11:30.687Z,55.95
2022-08-28T06:14:02.405Z,58.90
2022-08-28T06:16:31.185Z,52.75
2022-08-28T06:18:58.766Z,49.40
2022-08-28T06:21:26.226Z,56.60
2022-08-28T06:23:53.298Z,55.08
2022-08-28T06:26:20.948Z,52.70
2022-08-28T06:28:47.969Z,56.45
2022-08-28T06:31:24.382Z,51.63
2022-08-28T06:33:54.383Z,57.33
2022-08-28T06:36:22.179Z,51.90
2022-08-28T06:38:49.247Z,55.88
2022-08-28T06:41:16.749Z,57.63
2022-08-28T06:43:43.719Z,56.05
2022-08-28T06:46:10.822Z,51.05
2022-08-28T06:48:38.151Z,57.30
2022-08-28T06:51:10.814Z,53.88
2022-08-28T06:53:40.313Z,53.60
2022-08-28T06:56:26.618Z,49.10
2022-08-28T06:58:56.939Z,58.00
2022-08-28T07:01:29.477Z,55.92
2022-08-28T07:04:00.776Z,55.85
2022-08-28T07:06:30.995Z,53.95
2022-08-28T07:08:57.970Z,49.00
2022-08-28T07:11:28.997Z,44.83
2022-08-28T07:13:57.551Z,49.33
2022-08-28T07:16:28.209Z,42.70
2022-08-28T07:18:55.708Z,43.63
2022-08-28T07:21:22.884Z,44.47
2022-08-28T07:23:50.357Z,44.20
2022-08-28T07:26:22.627Z,40.30
2022-08-28T07:28:51.191Z,39.45
2022-08-28T07:31:22.610Z,40.03
2022-08-28T07:33:53.529Z,42.13
2022-08-28T07:36:29.388Z,40.60
2022-08-28T07:38:59.581Z,35.28
2022-08-28T07:41:30.440Z,39.85
2022-08-28T07:44:16.513Z,43.03
2022-08-28T07:46:44.670Z,45.70
2022-08-28T07:49:13.543Z,39.92
2022-08-28T07:51:40.654Z,47.42
2022-08-28T07:54:11.205Z,42.80
2022-08-28T07:56:44.334Z,43.08
2022-08-28T07:59:12.090Z,44.90
2022-08-28T08:01:46.901Z,39.92
2022-08-28T08:04:18.566Z,41.97
2022-08-28T08:06:45.766Z,38.25
2022-08-28T08:09:15.875Z,43.13
2022-08-28T08:11:43.216Z,39.15
2022-08-28T08:14:12.095Z,42.70
2022-08-28T08:16:43.637Z,46.70
2022-08-28T08:19:15.478Z,43.78
2022-08-28T08:21:44.584Z,43.92
2022-08-28T08:24:19.766Z,41.25
2022-08-28T08:26:56.527Z,41.05
2022-08-28T08:29:35.981Z,38.65
2022-08-28T08:32:08.166Z,45.70
2022-08-28T08:34:38.887Z,45.40
2022-08-28T08:37:06.712Z,40.65
2022-08-28T08:39:35.300Z,39.30
2022-08-28T08:42:05.206Z,40.88
2022-08-28T08:44:45.583Z,40.35
2022-08-28T08:47:22.542Z,41.05
2022-08-28T08:49:55.351Z,44.95
2022-08-28T08:52:22.466Z,39.58
2022-08-28T08:55:02.595Z,36.30
2022-08-28T08:57:32.075Z,35.38
2022-08-28T09:00:00.061Z,35.40
2022-08-28T09:02:33.817Z,34.50
2022-08-28T09:05:12.611Z,35.97
2022-08-28T09:08:02.764Z,35.40
2022-08-28T09:10:39.842Z,35.72
2022-08-28T09:13:11.550Z,32.72
2022-08-28T09:15:49.958Z,34.70
2022-08-28T09:18:33.568Z,32.20
2022-08-28T09:21:00.700Z,29.90
2022-08-28T09:23:29.865Z,32.17
2022-08-28T09:26:02.476Z,30.60
2022-08-28T09:28:29.589Z,32.20
2022-08-28T09:31:00.943Z,33.00
2022-08-28T09:33:56.654Z,28.27
2022-08-28T09:36:38.979Z,29.10
2022-08-28T09:39:18.491Z,33.17
2022-08-28T09:42:15.712Z,29.95
2022-08-28T09:44:51.287Z,28.98
2022-08-28T09:47:36.873Z,27.98
2022-08-28T09:50:34.761Z,26.45
2022-08-28T09:53:11.772Z,29.48
2022-08-28T09:55:57.935Z,30.75
2022-08-28T09:58:32.942Z,28.10
2022-08-28T10:01:27.379Z,32.03
2022-08-28T10:04:38.171Z,29.67
2022-08-28T10:07:24.717Z,30.08
2022-08-28T10:10:06.540Z,36.72
2022-08-28T10:13:01.540Z,33.95
2022-08-28T10:15:49.626Z,25.15
2022-08-28T10:18:35.609Z,24.10
2022-08-28T10:21:05.455Z,26.07
2022-08-28T10:23:46.271Z,28.60
2022-08-28T10:26:25.322Z,25.02
2022-08-28T10:29:08.080Z,28.50
2022-08-28T10:31:58.062Z,29.30
2022-08-28T10:34:54.840Z,24.38
2022-08-28T10:38:02.927Z,26.63
2022-08-28T10:40:36.346Z,26.42
2022-08-28T10:43:14.843Z,26.45
2022-08-28T10:45:43.527Z,24.52
2022-08-28T10:48:22.625Z,26.67
2022-08-28T10:50:56.297Z,24.02
2022-08-28T10:53:38.668Z,24.00
2022-08-28T10:56:10.911Z,23.25
2022-08-28T10:58:41.273Z,36.25
2022-08-28T11:01:33.339Z,22.60
2022-08-28T11:04:03.038Z,21.73
2022-08-28T11:06:42.257Z,21.85
2022-08-28T11:09:28.007Z,19.48
2022-08-28T11:12:28.703Z,17.58
2022-08-28T11:14:55.941Z,16.27
2022-08-28T11:17:23.054Z,18.73
2022-08-28T11:19:54.398Z,19.60
2022-08-28T11:22:25.820Z,15.98
2022-08-28T11:25:13.202Z,16.42
2022-08-28T11:28:00.827Z,15.52
2022-08-28T11:30:35.682Z,18.55
2022-08-28T11:33:06.828Z,16.45
2022-08-28T11:35:42.305Z,17.42
2022-08-28T11:38:10.404Z,17.02
2022-08-28T11:40:50.017Z,18.50
2022-08-28T11:43:18.916Z,16.67
2022-08-28T11:45:47.076Z,16.00
2022-08-28T11:48:36.357Z,18.65
2022-08-28T11:51:23.311Z,12.80
2022-08-28T11:54:20.063Z,14.02
2022-08-28T11:56:53.707Z,20.40
2022-08-28T11:59:35.748Z,16.40
2022-08-28T12:02:32.125Z,14.82
2022-08-28T12:04:59.512Z,16.20
2022-08-28T12:07:34.890Z,18.70
2022-08-28T12:10:05.188Z,23.40
2022-08-28T12:12:47.471Z,23.30
2022-08-28T12:15:41.860Z,16.63
2022-08-28T12:18:12.081Z,18.23
2022-08-28T12:20:51.413Z,19.17
2022-08-28T12:23:24.193Z,17.17
2022-08-28T12:26:19.107Z,21.05
2022-08-28T12:28:54.828Z,19.33
2022-08-28T12:32:15.010Z,16.52
2022-08-28T12:34:45.480Z,11.30
2022-08-28T12:37:30.807Z,14.10
2022-08-28T12:43:04.057Z,13.02
2022-08-28T12:45:38.391Z,10.95
2022-08-28T12:48:33.652Z,12.10
2022-08-28T12:51:13.416Z,11.45
2022-08-28T12:53:46.571Z,14.82
2022-08-28T12:56:17.991Z,18.80
2022-08-28T12:58:46.351Z,15.10
2022-08-28T13:01:31.808Z,16.67
2022-08-28T13:04:01.638Z,14.00
2022-08-28T13:06:34.055Z,17.63
2022-08-28T13:09:02.294Z,10.88
2022-08-28T13:11:45.904Z,11.93
2022-08-28T13:14:13.035Z,11.88
2022-08-28T13:16:43.870Z,10.98
2022-08-28T13:19:29.124Z,10.30
2022-08-28T13:22:00.609Z,9.50
2022-08-28T13:24:44.352Z,10.65
2022-08-28T13:27:19.386Z,10.63
2022-08-28T13:30:14.025Z,10.75
2022-08-28T13:32:40.998Z,10.70
2022-08-28T13:35:28.288Z,10.30
2022-08-28T13:37:58.084Z,14.27
2022-08-28T13:43:23.091Z,11.82
2022-08-28T13:45:50.653Z,9.68
2022-08-28T13:48:25.755Z,15.00
2022-08-28T13:50:59.055Z,11.20
2022-08-28T13:53:26.075Z,15.23
2022-08-28T13:55:53.396Z,11.48
2022-08-28T13:58:20.424Z,16.25
2022-08-28T14:00:50.682Z,12.82
2022-08-28T14:03:38.014Z,13.52
2022-08-28T14:06:14.261Z,17.83
2022-08-28T14:11:12.679Z,14.63
2022-08-28T14:13:47.020Z,11.88
2022-08-28T14:16:25.547Z,14.00
2022-08-28T14:18:53.346Z,11.35
2022-08-28T14:21:21.756Z,14.15
2022-08-28T14:23:49.343Z,15.18
2022-08-28T14:26:16.502Z,14.50
2022-08-28T14:28:43.816Z,13.30
2022-08-28T14:31:14.384Z,14.07
2022-08-28T14:33:45.113Z,13.90
2022-08-28T14:36:26.439Z,13.65
2022-08-28T14:38:55.379Z,15.63
2022-08-28T14:41:23.980Z,16.98
2022-08-28T14:43:52.236Z,17.48
2022-08-28T14:46:28.703Z,16.00
2022-08-28T14:49:09.133Z,16.80
2022-08-28T14:51:38.291Z,19.63
2022-08-28T14:54:06.256Z,20.70
2022-08-28T14:56:33.497Z,19.08
2022-08-28T14:59:01.758Z,18.83
2022-08-28T15:01:36.657Z,21.02
2022-08-28T15:04:11.199Z,22.70
2022-08-28T15:06:38.993Z,25.17
2022-08-28T15:09:06.255Z,21.00
2022-08-28T15:11:35.459Z,25.45
2022-08-28T15:14:02.418Z,19.98
2022-08-28T15:16:32.630Z,24.52
2022-08-28T15:19:00.991Z,23.08
2022-08-28T15:21:35.491Z,23.83
2022-08-28T15:24:05.341Z,23.05
2022-08-28T15:26:32.858Z,24.45
2022-08-28T15:29:03.814Z,22.58
2022-08-28T15:31:33.388Z,22.55
2022-08-28T15:34:13.641Z,21.77
2022-08-28T15:36:42.426Z,20.95
2022-08-28T15:39:28.934Z,19.02
2022-08-28T15:41:56.513Z,25.45
2022-08-28T15:44:23.509Z,20.13
2022-08-28T15:46:53.917Z,22.75
2022-08-28T15:49:23.728Z,23.92
2022-08-28T15:51:51.077Z,22.20
2022-08-28T15:54:18.690Z,28.00
2022-08-28T15:56:46.346Z,25.92
2022-08-28T15:59:17.792Z,19.27
2022-08-28T16:01:45.675Z,22.13
2022-08-28T16:04:13.707Z,21.08
2022-08-28T16:06:42.012Z,23.45
2022-08-28T16:09:10.160Z,25.10
2022-08-28T16:11:38.711Z,21.52
2022-08-28T16:14:07.649Z,20.30
2022-08-28T16:16:34.706Z,26.52
2022-08-28T16:19:01.896Z,22.42
2022-08-28T16:21:29.294Z,21.15
2022-08-28T16:23:56.367Z,25.75
2022-08-28T16:26:24.320Z,24.20
2022-08-28T16:28:51.381Z,21.58
2022-08-28T16:31:20.409Z,24.15
2022-08-28T16:33:49.788Z,27.95
2022-08-28T16:36:18.703Z,28.80
2022-08-28T16:38:49.681Z,22.40
2022-08-28T16:41:27.614Z,24.83
2022-08-28T16:43:56.274Z,24.90
2022-08-28T16:46:26.802Z,38.85
2022-08-28T16:48:54.606Z,30.15
2022-08-28T16:51:22.130Z,29.50
2022-08-28T16:53:49.127Z,37.00
2022-08-28T16:56:18.008Z,29.70
2022-08-28T16:58:45.994Z,34.22
2022-08-28T17:01:13.721Z,36.28
2022-08-28T17:03:42.400Z,35.03
2022-08-28T17:06:21.741Z,36.42
2022-08-28T17:08:51.335Z,35.72
2022-08-28T17:11:21.191Z,37.88
2022-08-28T17:13:51.179Z,41.17
2022-08-28T17:16:19.545Z,45.53
2022-08-28T17:18:51.979Z,48.17
2022-08-28T17:21:40.385Z,48.08
2022-08-28T17:24:08.752Z,48.38
2022-08-28T17:26:35.892Z,50.92
2022-08-28T17:29:03.941Z,53.05
2022-08-28T17:31:31.550Z,64.95
2022-08-28T17:33:58.803Z,61.78
2022-08-28T17:36:34.085Z,70.50
2022-08-28T17:39:04.245Z,69.85
2022-08-28T17:41:33.634Z,71.97
2022-08-28T17:44:02.013Z,81.97
2022-08-28T17:46:31.817Z,75.60
2022-08-28T17:49:03.413Z,90.72
2022-08-28T17:51:42.729Z,82.80
2022-08-28T17:54:21.693Z,94.22
2022-08-28T17:56:49.912Z,95.85
2022-08-28T17:59:17.556Z,94.30
2022-08-28T18:01:46.960Z,95.70
2022-08-28T18:04:17.964Z,92.80
2022-08-28T18:06:47.874Z,89.40
2022-08-28T18:09:15.220Z,92.63
2022-08-28T18:11:43.525Z,91.85
2022-08-28T18:14:11.195Z,95.50
2022-08-28T18:16:38.778Z,92.28
2022-08-28T18:19:08.960Z,93.63
2022-08-28T18:21:37.632Z,92.15
2022-08-28T18:24:05.243Z,85.10
2022-08-28T18:26:32.393Z,87.68
2022-08-28T18:28:59.576Z,91.28
2022-08-28T18:31:26.855Z,90.85
2022-08-28T18:33:54.589Z,86.68
2022-08-28T18:36:23.483Z,85.45
2022-08-28T18:38:51.094Z,96.22
2022-08-28T18:41:20.538Z,82.85
2022-08-28T18:43:48.081Z,82.35
2022-08-28T18:46:15.234Z,80.07
2022-08-28T18:48:42.956Z,76.50
2022-08-28T18:51:12.242Z,79.68
2022-08-28T18:53:42.365Z,79.75
2022-08-28T18:56:12.394Z,70.28
2022-08-28T18:58:41.154Z,76.32
2022-08-28T19:01:09.719Z,74.43
2022-08-28T19:03:37.391Z,73.20
2022-08-28T19:06:06.432Z,71.43
2022-08-28T19:08:36.851Z,69.85
2022-08-28T19:11:10.116Z,67.07
2022-08-28T19:13:37.393Z,62.35
2022-08-28T19:16:05.382Z,63.35
2022-08-28T19:18:32.572Z,62.83
2022-08-28T19:21:16.332Z,55.22
2022-08-28T19:23:44.585Z,53.47
2022-08-28T19:26:25.312Z,53.58
2022-08-28T19:28:53.750Z,50.83
2022-08-28T19:31:22.591Z,48.72
2022-08-28T19:33:49.711Z,44.53
2022-08-28T19:36:18.670Z,45.15
2022-08-28T19:38:45.904Z,47.83
2022-08-28T19:41:13.375Z,43.60
2022-08-28T19:43:42.858Z,45.15
2022-08-28T19:46:19.601Z,46.58
2022-08-28T19:48:52.543Z,40.53
2022-08-28T19:51:23.906Z,49.17
2022-08-28T19:53:57.182Z,47.97
2022-08-28T19:56:30.003Z,43.15
2022-08-28T19:58:59.400Z,41.00
2022-08-28T20:01:32.958Z,37.63
2022-08-28T20:04:01.421Z,40.53
2022-08-28T20:06:32.282Z,41.65
2022-08-28T20:09:00.495Z,40.92
2022-08-28T20:11:30.160Z,38.58
2022-08-28T20:14:04.430Z,39.67
2022-08-28T20:16:35.836Z,39.05
2022-08-28T20:19:07.899Z,35.90
2022-08-28T20:21:37.126Z,40.42
2022-08-28T20:24:11.950Z,36.50
2022-08-28T20:26:40.212Z,40.70
2022-08-28T20:29:08.740Z,41.38
2022-08-28T20:31:40.565Z,38.38
2022-08-28T20:34:09.769Z,39.80
2022-08-28T20:36:37.252Z,36.92
2022-08-28T20:39:07.260Z,41.53
2022-08-28T20:41:34.703Z,41.45
2022-08-28T20:44:05.070Z,43.45
2022-08-28T20:46:38.523Z,44.03
2022-08-28T20:49:12.556Z,40.55
2022-08-28T20:51:56.556Z,44.92
2022-08-28T20:54:38.873Z,41.83
2022-08-28T20:57:12.731Z,45.70
2022-08-28T20:59:42.241Z,42.95
2022-08-28T21:02:17.225Z,40.90
2022-08-28T21:08:15.493Z,39.85
2022-08-28T21:10:45.053Z,41.13
2022-08-28T21:13:13.103Z,41.85
2022-08-28T21:15:41.163Z,40.80
2022-08-28T21:18:10.077Z,41.13
2022-08-28T21:20:39.257Z,41.17
2022-08-28T21:23:07.114Z,40.17
2022-08-28T21:25:34.187Z,38.13
2022-08-28T21:28:04.161Z,37.05
2022-08-28T21:30:31.912Z,39.13
2022-08-28T21:32:59.141Z,41.47
2022-08-28T21:35:26.368Z,38.20
2022-08-28T21:37:53.550Z,40.30
2022-08-28T21:40:20.757Z,40.08
2022-08-28T21:42:47.801Z,39.03
2022-08-28T21:45:14.950Z,40.05
2022-08-28T21:47:42.660Z,44.72
2022-08-28T21:50:10.998Z,43.05
2022-08-28T21:52:38.190Z,42.15
2022-08-28T21:55:09.606Z,39.17
2022-08-28T21:57:36.855Z,39.63
2022-08-28T22:00:09.425Z,42.33
2022-08-28T22:02:36.497Z,40.95
2022-08-28T22:05:04.033Z,48.67
2022-08-28T22:07:31.226Z,43.53
2022-08-28T22:09:58.328Z,42.65
2022-08-28T22:12:25.388Z,44.88
2022-08-28T22:14:52.526Z,42.47
2022-08-28T22:17:19.533Z,43.20
2022-08-28T22:19:46.954Z,44.60
2022-08-28T22:22:53.300Z,46.67
2022-08-28T22:25:20.400Z,38.90
2022-08-28T22:27:47.362Z,42.38
2022-08-28T22:30:14.533Z,46.22
2022-08-28T22:32:41.523Z,45.92
2022-08-28T22:35:10.790Z,42.40
2022-08-28T22:37:38.151Z,45.45
2022-08-28T22:40:13.136Z,44.60
2022-08-28T22:42:41.321Z,44.00
2022-08-28T22:45:09.699Z,41.53
2022-08-28T22:47:37.014Z,45.42
2022-08-28T22:50:04.810Z,44.78
2022-08-28T22:52:32.505Z,43.72
2022-08-28T22:54:59.571Z,47.90
2022-08-28T22:57:26.871Z,48.28
2022-08-28T22:59:54.094Z,44.55
2022-08-28T23:02:21.826Z,44.42
2022-08-28T23:04:54.559Z,46.78
2022-08-28T23:07:22.421Z,42.25
2022-08-28T23:09:49.505Z,48.03
2022-08-28T23:12:16.828Z,44.72
2022-08-28T23:14:48.219Z,45.05
2022-08-28T23:17:17.013Z,47.17
2022-08-28T23:19:44.384Z,48.90
2022-08-28T23:22:13.614Z,47.83
2022-08-28T23:24:40.707Z,51.80
2022-08-28T23:27:34.317Z,49.42
2022-08-28T23:29:55.944Z,46.22
2022-08-28T23:32:23.258Z,58.20
2022-08-28T23:34:51.216Z,50.63
2022-08-28T23:37:18.288Z,47.97
2022-08-28T23:39:45.457Z,44.38
2022-08-28T23:42:12.463Z,46.13
2022-08-28T23:44:39.438Z,43.90
2022-08-28T23:47:06.581Z,44.47
2022-08-28T23:49:34.345Z,44.50
2022-08-28T23:52:10.112Z,42.92
2022-08-28T23:54:37.266Z,48.10
2022-08-28T23:57:05.409Z,44.38
2022-08-28T23:59:32.810Z,44.83
